Time;durP1;ratioP1;P1;durP2;ratioP2;P2;SDS_P1;SDS_P2;PMS_P1;PMS_P2;Temp;Humidity;BMP_temperature;BMP_pressure;BME280_temperature;BME280_humidity;BME280_pressure;Samples;Min_cycle;Max_cycle;Signal;HPM_P1;HPM_P2
2022/02/17 00:01:48;;;;;;;;;;;;;;;8.12;93.25;96445.52;1645731;85;24545;-83
2022/02/17 00:04:14;;;;;;;;;;;;;;;8.11;93.48;96430.36;1648899;86;20495;-82
2022/02/17 00:06:40;;;;;;;;;;;;;;;8.10;93.73;96439.13;1650437;86;25046;-82
2022/02/17 00:09:06;;;;;;;;;;;;;;;8.09;93.93;96427.55;1650847;86;22670;-82
2022/02/17 00:11:41;;;;;;;;;;;;;;;8.07;94.14;96417.29;1644470;86;26657;-82
2022/02/17 00:14:06;;;;;;;;;;;;;;;8.08;94.41;96437.62;1652853;85;24567;-83
2022/02/17 00:16:32;;;;;;;;;;;;;;;8.09;94.67;96417.13;1648826;85;20239;-82
2022/02/17 00:19:02;;;;;;;;;;;;;;;8.09;94.89;96417.95;1628086;87;20810;-83
2022/02/17 00:21:26;;;;;;;;;;;;;;;8.10;95.14;96399.23;1632424;87;22355;-82
2022/02/17 00:23:52;;;;;;;;;;;;;;;8.13;95.37;96395.06;1635540;86;21146;-83
2022/02/17 00:26:18;;;;;;;;;;;;;;;8.15;95.61;96403.06;1630150;87;24493;-82
2022/02/17 00:28:44;;;;;;;;;;;;;;;8.18;95.85;96409.78;1648827;85;20297;-83
2022/02/17 00:31:16;;;;;;;;;;;;;;;8.22;96.15;96411.13;1638272;87;26072;-83
2022/02/17 00:33:42;;;;;;;;;;;;;;;8.27;96.40;96403.71;1629417;87;22063;-82
2022/02/17 00:36:08;;;;;;;;;;;;;;;8.31;96.63;96385.55;1637192;87;25930;-82
2022/02/17 00:38:34;;;;;;;;;;;;;;;8.34;96.91;96375.67;1635369;87;24522;-82
2022/02/17 00:41:02;;;;;;;;;;;;;;;8.48;97.25;96360.03;1628521;87;20595;-87
2022/02/17 00:43:29;;;;;;;;;;;;;;;8.55;97.55;96368.09;1634083;87;25215;-88
2022/02/17 00:45:55;;;;;;;;;;;;;;;8.55;97.75;96379.34;1633010;87;21956;-87
2022/02/17 00:48:22;;;;;;;;;;;;;;;8.66;98.05;96397.88;1631140;87;26058;-82
2022/02/17 00:50:48;;;;;;;;;;;;;;;8.74;98.35;96420.95;1633376;87;24419;-87
2022/02/17 00:53:17;;;;;;;;;;;;;;;8.77;98.51;96397.69;1632599;87;20356;-87
2022/02/17 00:55:43;;;;;;;;;;;;;;;8.71;98.54;96396.48;1605649;87;26349;-86
2022/02/17 00:58:09;;;;;;;;;;;;;;;8.67;98.52;96410.75;1635496;86;22116;-87
2022/02/17 01:00:37;;;;;;;;;;;;;;;8.63;98.57;96395.55;1634817;86;26988;-87
2022/02/17 01:03:03;;;;;;;;;;;;;;;8.60;98.62;96399.28;1640521;86;25501;-87
2022/02/17 01:05:30;;;;;;;;;;;;;;;8.58;98.67;96393.86;1637378;86;20254;-87
2022/02/17 01:08:03;;;;;;;;;;;;;;;8.53;98.74;96383.88;1650900;85;25000;-87
2022/02/17 01:10:29;;;;;;;;;;;;;;;8.49;98.90;96389.52;1635787;87;22004;-86
2022/02/17 01:13:01;;;;;;;;;;;;;;;8.45;99.05;96401.21;1650673;85;26811;-87
2022/02/17 01:15:37;;;;;;;;;;;;;;;8.40;99.29;96412.87;1633181;86;24489;-88
2022/02/17 01:18:04;;;;;;;;;;;;;;;8.39;99.54;96422.16;1650844;86;20318;-88
2022/02/17 01:20:32;;;;;;;;;;;;;;;8.36;99.75;96401.09;1648844;86;25030;-89
2022/02/17 01:23:04;;;;;;;;;;;;;;;8.33;99.99;96388.84;1648635;86;22121;-89
2022/02/17 01:25:30;;;;;;;;;;;;;;;8.29;100.00;96380.44;1652615;85;26006;-88
2022/02/17 01:28:02;;;;;;;;;;;;;;;8.23;100.00;96352.38;1650522;85;24355;-88
2022/02/17 01:30:28;;;;;;;;;;;;;;;8.22;100.00;96339.48;1623780;87;20296;-89
2022/02/17 01:32:54;;;;;;;;;;;;;;;8.19;100.00;96322.81;1636138;86;24995;-88
2022/02/17 01:35:22;;;;;;;;;;;;;;;8.15;100.00;96294.94;1652447;85;22671;-87
2022/02/17 01:37:48;;;;;;;;;;;;;;;8.14;100.00;96281.57;1650438;85;26906;-87
2022/02/17 01:40:14;;;;;;;;;;;;;;;8.13;100.00;96276.53;1656210;85;25151;-87
2022/02/17 01:42:46;;;;;;;;;;;;;;;8.12;100.00;96264.46;1653760;85;20872;-87
2022/02/17 01:45:09;;;;;;;;;;;;;;;8.11;100.00;96248.48;1636248;86;24761;-87
2022/02/17 01:47:35;;;;;;;;;;;;;;;8.12;100.00;96235.33;1651495;86;22037;-83
2022/02/17 01:50:03;;;;;;;;;;;;;;;8.09;100.00;96220.45;1653063;86;26821;-82
2022/02/17 01:52:29;;;;;;;;;;;;;;;8.10;100.00;96215.58;1651157;85;24076;-83
2022/02/17 01:55:01;;;;;;;;;;;;;;;8.09;100.00;96211.33;1649770;85;20290;-83
2022/02/17 01:57:28;;;;;;;;;;;;;;;8.08;100.00;96188.37;1655127;85;25020;-85
2022/02/17 01:59:54;;;;;;;;;;;;;;;8.08;100.00;96197.97;1652482;85;22073;-85
2022/02/17 02:02:31;;;;;;;;;;;;;;;8.06;100.00;96184.28;1658133;85;26386;-84
2022/02/17 02:04:57;;;;;;;;;;;;;;;8.03;100.00;96162.42;1658021;85;24140;-86
2022/02/17 02:07:24;;;;;;;;;;;;;;;8.02;100.00;96136.06;1653901;85;20323;-86
2022/02/17 02:09:50;;;;;;;;;;;;;;;8.09;100.00;96141.00;1653168;85;25035;-88
2022/02/17 02:12:17;;;;;;;;;;;;;;;8.13;100.00;96137.16;1648611;85;21996;-88
2022/02/17 02:14:50;;;;;;;;;;;;;;;8.16;100.00;96132.94;1645447;84;26015;-88
2022/02/17 02:17:18;;;;;;;;;;;;;;;8.25;100.00;96132.03;1640796;85;24407;-88
2022/02/17 02:19:46;;;;;;;;;;;;;;;8.35;100.00;96148.44;1652856;85;20409;-89
2022/02/17 02:22:12;;;;;;;;;;;;;;;8.39;100.00;96112.84;1647298;85;24986;-89
2022/02/17 02:24:38;;;;;;;;;;;;;;;8.43;100.00;96100.31;1661294;85;21985;-89
2022/02/17 02:27:14;;;;;;;;;;;;;;;8.34;100.00;96099.44;1655634;85;26032;-89
2022/02/17 02:29:42;;;;;;;;;;;;;;;8.28;100.00;96096.09;1649644;85;24458;-88
2022/02/17 02:32:08;;;;;;;;;;;;;;;8.23;100.00;96087.91;1650849;85;21315;-89
2022/02/17 02:34:35;;;;;;;;;;;;;;;8.22;100.00;96082.36;1660997;85;25136;-88
2022/02/17 02:37:02;;;;;;;;;;;;;;;8.26;100.00;96068.54;1620171;87;21961;-89
2022/02/17 02:39:28;;;;;;;;;;;;;;;8.31;100.00;96063.72;1602524;88;26137;-88
2022/02/17 02:41:55;;;;;;;;;;;;;;;8.46;100.00;96068.72;1647758;85;20229;-88
2022/02/17 02:44:21;;;;;;;;;;;;;;;8.56;100.00;96057.73;1646005;85;20231;-88
2022/02/17 02:46:47;;;;;;;;;;;;;;;8.68;100.00;96049.15;1629712;87;24874;-88
2022/02/17 02:49:22;;;;;;;;;;;;;;;8.87;100.00;96050.73;1647876;85;20250;-87
2022/02/17 02:51:48;;;;;;;;;;;;;;;9.05;100.00;96038.45;1647974;85;26078;-88
2022/02/17 02:54:15;;;;;;;;;;;;;;;9.19;100.00;96040.45;1645642;85;24484;-88
2022/02/17 02:56:41;;;;;;;;;;;;;;;9.31;100.00;96042.30;1649935;86;20219;-87
2022/02/17 02:59:07;;;;;;;;;;;;;;;9.41;100.00;96044.28;1647865;85;25001;-88
2022/02/17 03:01:33;;;;;;;;;;;;;;;9.46;100.00;96025.05;1648713;86;21980;-87
2022/02/17 03:04:00;;;;;;;;;;;;;;;9.49;100.00;96010.39;1646439;87;26047;-87
2022/02/17 03:06:29;;;;;;;;;;;;;;;9.54;100.00;96000.28;1645775;86;24687;-88
2022/02/17 03:08:56;;;;;;;;;;;;;;;9.62;100.00;96009.42;1641306;87;20256;-87
2022/02/17 03:11:22;;;;;;;;;;;;;;;9.71;100.00;95990.68;1643462;85;25652;-88
2022/02/17 03:13:48;;;;;;;;;;;;;;;9.78;100.00;95996.88;1646136;86;21951;-87
2022/02/17 03:16:14;;;;;;;;;;;;;;;9.84;100.00;95997.53;1643936;87;25959;-88
2022/02/17 03:18:41;;;;;;;;;;;;;;;9.88;100.00;96003.58;1643298;87;24410;-88
2022/02/17 03:21:08;;;;;;;;;;;;;;;9.95;100.00;95991.99;1644671;86;20513;-88
2022/02/17 03:23:35;;;;;;;;;;;;;;;10.04;100.00;95994.44;1642436;85;24972;-87
2022/02/17 03:26:01;;;;;;;;;;;;;;;10.11;100.00;95975.48;1645538;86;22031;-88
2022/02/17 03:28:30;;;;;;;;;;;;;;;10.18;100.00;95969.48;1651788;85;26747;-88
2022/02/17 03:30:56;;;;;;;;;;;;;;;10.27;100.00;95958.52;1659415;86;24384;-85
2022/02/17 03:33:22;;;;;;;;;;;;;;;10.32;100.00;95966.19;1649839;85;20235;-85
2022/02/17 03:35:54;;;;;;;;;;;;;;;10.35;100.00;95941.53;1657669;85;25720;-86
2022/02/17 03:38:20;;;;;;;;;;;;;;;10.38;100.00;95953.77;1639856;86;22067;-87
2022/02/17 03:40:49;;;;;;;;;;;;;;;10.47;100.00;95933.66;1646082;85;25961;-87
2022/02/17 03:43:16;;;;;;;;;;;;;;;10.56;100.00;95954.05;1653664;86;24638;-86
2022/02/17 03:45:46;;;;;;;;;;;;;;;10.60;100.00;95961.39;1648793;85;20290;-86
2022/02/17 03:48:10;;;;;;;;;;;;;;;10.61;100.00;95953.06;1635102;86;25179;-86
2022/02/17 03:50:36;;;;;;;;;;;;;;;10.61;100.00;95948.65;1656003;85;22249;-86
2022/02/17 03:53:02;;;;;;;;;;;;;;;10.65;100.00;95965.62;1650053;86;25878;-88
2022/02/17 03:55:28;;;;;;;;;;;;;;;10.70;100.00;95960.70;1658168;86;24465;-88
2022/02/17 03:57:54;;;;;;;;;;;;;;;10.74;100.00;95963.82;1647712;85;20237;-88
2022/02/17 04:00:20;;;;;;;;;;;;;;;10.76;100.00;95950.88;1640536;86;24939;-88
2022/02/17 04:02:50;;;;;;;;;;;;;;;10.82;100.00;95944.16;1664076;85;22067;-88
2022/02/17 04:05:22;;;;;;;;;;;;;;;10.86;100.00;95949.36;1622914;86;26684;-88
2022/02/17 04:07:48;;;;;;;;;;;;;;;10.91;100.00;95940.02;1649971;86;24451;-88
2022/02/17 04:10:14;;;;;;;;;;;;;;;10.93;100.00;95941.66;1634810;87;20313;-88
2022/02/17 04:12:40;;;;;;;;;;;;;;;10.93;100.00;95924.16;1648109;86;25031;-88
2022/02/17 04:15:15;;;;;;;;;;;;;;;10.96;100.00;95924.33;1648562;86;21938;-83
2022/02/17 04:17:42;;;;;;;;;;;;;;;10.98;100.00;95928.39;1648787;86;26714;-83
2022/02/17 04:20:11;;;;;;;;;;;;;;;10.98;100.00;95927.57;1637030;86;24706;-83
2022/02/17 04:22:37;;;;;;;;;;;;;;;10.98;100.00;95932.80;1653203;86;20219;-83
2022/02/17 04:25:03;;;;;;;;;;;;;;;10.98;100.00;95900.09;1652839;85;25954;-84
2022/02/17 04:27:30;;;;;;;;;;;;;;;11.00;100.00;95895.02;1632087;86;22688;-83
2022/02/17 04:29:56;;;;;;;;;;;;;;;11.00;100.00;95912.03;1650194;86;21147;-83
2022/02/17 04:32:22;;;;;;;;;;;;;;;11.02;100.00;95869.48;1646363;85;24547;-83
2022/02/17 04:34:48;;;;;;;;;;;;;;;11.02;100.00;95878.64;1621351;87;20214;-83
2022/02/17 04:37:14;;;;;;;;;;;;;;;11.03;100.00;95870.30;1633478;86;25048;-83
2022/02/17 04:39:40;;;;;;;;;;;;;;;11.03;100.00;95854.59;1619847;87;21977;-83
2022/02/17 04:42:18;;;;;;;;;;;;;;;11.03;100.00;95859.83;1647890;85;26195;-83
2022/02/17 04:44:45;;;;;;;;;;;;;;;11.05;100.00;95862.61;1647140;85;24498;-85
2022/02/17 04:47:13;;;;;;;;;;;;;;;11.07;100.00;95846.25;1625254;86;20493;-84
2022/02/17 04:49:39;;;;;;;;;;;;;;;11.10;100.00;95847.69;1648784;85;25132;-84
2022/02/17 04:52:07;;;;;;;;;;;;;;;11.10;100.00;95836.73;1636051;86;21950;-83
2022/02/17 04:54:33;;;;;;;;;;;;;;;11.11;100.00;95827.89;1663449;85;26052;-88
2022/02/17 04:57:02;;;;;;;;;;;;;;;11.17;100.00;95848.63;1670988;85;24465;-88
2022/02/17 04:59:30;;;;;;;;;;;;;;;11.20;100.00;95850.39;1640342;85;20228;-84
2022/02/17 05:01:56;;;;;;;;;;;;;;;11.26;100.00;95827.94;1654708;85;25143;-85
2022/02/17 05:04:23;;;;;;;;;;;;;;;11.28;100.00;95831.20;1654096;85;21997;-85
2022/02/17 05:06:49;;;;;;;;;;;;;;;11.26;100.00;95826.63;1653481;85;25738;-88
2022/02/17 05:09:15;;;;;;;;;;;;;;;11.25;100.00;95798.33;1651355;85;24493;-87
2022/02/17 05:11:44;;;;;;;;;;;;;;;11.28;100.00;95790.62;1649924;85;20265;-86
2022/02/17 05:14:10;;;;;;;;;;;;;;;11.30;100.00;95789.94;1649149;85;24977;-86
2022/02/17 05:16:39;;;;;;;;;;;;;;;11.32;100.00;95764.41;1654033;85;21899;-86
2022/02/17 05:19:04;;;;;;;;;;;;;;;11.35;100.00;95787.61;1653506;86;26082;-86
2022/02/17 05:21:30;;;;;;;;;;;;;;;11.34;100.00;95786.00;1652857;85;24493;-86
2022/02/17 05:23:56;;;;;;;;;;;;;;;11.39;100.00;95778.92;1650774;85;20559;-87
2022/02/17 05:26:22;;;;;;;;;;;;;;;11.39;100.00;95776.30;1651617;85;25019;-87
2022/02/17 05:28:48;;;;;;;;;;;;;;;11.40;100.00;95763.01;1651462;86;21937;-86
2022/02/17 05:31:14;;;;;;;;;;;;;;;11.43;100.00;95761.86;1654250;85;26009;-86
2022/02/17 05:33:42;;;;;;;;;;;;;;;11.44;100.00;95769.55;1650900;85;24416;-88
2022/02/17 05:36:08;;;;;;;;;;;;;;;11.47;100.00;95780.95;1652305;85;20282;-89
2022/02/17 05:38:34;;;;;;;;;;;;;;;11.45;100.00;95771.17;1653163;85;25135;-84
2022/02/17 05:41:00;;;;;;;;;;;;;;;11.47;100.00;95777.52;1651523;85;20249;-88
2022/02/17 05:43:26;;;;;;;;;;;;;;;11.50;100.00;95770.14;1654281;85;26741;-88
2022/02/17 05:45:52;;;;;;;;;;;;;;;11.52;100.00;95742.45;1653044;85;24497;-83
2022/02/17 05:48:19;;;;;;;;;;;;;;;11.54;100.00;95758.31;1653632;85;20298;-85
2022/02/17 05:50:47;;;;;;;;;;;;;;;11.55;100.00;95748.16;1652463;85;20653;-85
2022/02/17 05:53:13;;;;;;;;;;;;;;;11.59;100.00;95748.11;1653309;85;21963;-85
2022/02/17 05:55:40;;;;;;;;;;;;;;;11.62;100.00;95760.02;1651839;85;25939;-86
2022/02/17 05:58:07;;;;;;;;;;;;;;;11.62;100.00;95750.36;1652104;85;24496;-88
2022/02/17 06:00:33;;;;;;;;;;;;;;;11.65;100.00;95760.50;1650304;85;20562;-89
2022/02/17 06:02:59;;;;;;;;;;;;;;;11.69;100.00;95722.95;1647642;85;25199;-86
2022/02/17 06:05:25;;;;;;;;;;;;;;;11.74;100.00;95720.64;1645896;85;22083;-86
2022/02/17 06:07:51;;;;;;;;;;;;;;;11.81;100.00;95728.59;1647621;85;26210;-85
2022/02/17 06:10:18;;;;;;;;;;;;;;;11.86;100.00;95726.24;1647765;86;25409;-85
2022/02/17 06:12:52;;;;;;;;;;;;;;;11.89;100.00;95741.63;1646404;87;20609;-88
2022/02/17 06:15:19;;;;;;;;;;;;;;;11.84;100.00;95732.97;1645783;85;25183;-88
2022/02/17 06:17:45;;;;;;;;;;;;;;;11.80;100.00;95740.06;1626539;87;22918;-89
2022/02/17 06:20:11;;;;;;;;;;;;;;;11.72;100.00;95743.57;1645516;85;25866;-84
2022/02/17 06:22:45;;;;;;;;;;;;;;;11.68;100.00;95715.59;1648087;85;24376;-86
2022/02/17 06:25:19;;;;;;;;;;;;;;;11.67;100.00;95737.53;1646660;86;20248;-84
2022/02/17 06:27:48;;;;;;;;;;;;;;;11.67;100.00;95733.61;1645921;85;25827;-88
2022/02/17 06:30:15;;;;;;;;;;;;;;;11.69;100.00;95717.22;1645431;86;22001;-84
2022/02/17 06:32:45;;;;;;;;;;;;;;;11.70;100.00;95712.80;1645409;86;26071;-84
2022/02/17 06:35:12;;;;;;;;;;;;;;;11.69;100.00;95705.43;1646723;85;25213;-88
2022/02/17 06:37:43;;;;;;;;;;;;;;;11.71;100.00;95717.05;1646634;85;20353;-85
2022/02/17 06:40:10;;;;;;;;;;;;;;;11.71;100.00;95686.92;1648026;85;25051;-88
2022/02/17 06:42:36;;;;;;;;;;;;;;;11.68;100.00;95668.44;1647777;85;22171;-88
2022/02/17 06:45:02;;;;;;;;;;;;;;;11.68;100.00;95689.39;1647635;85;26022;-88
2022/02/17 06:47:28;;;;;;;;;;;;;;;11.71;100.00;95655.48;1648176;85;24499;-86
2022/02/17 06:50:01;;;;;;;;;;;;;;;11.67;100.00;95601.84;1648436;85;20274;-88
2022/02/17 06:52:27;;;;;;;;;;;;;;;11.77;100.00;95627.78;1647335;86;25227;-83
2022/02/17 06:54:53;;;;;;;;;;;;;;;11.80;100.00;95608.56;1647729;85;21973;-88
2022/02/17 06:57:24;;;;;;;;;;;;;;;11.84;100.00;95603.26;1647288;85;20930;-85
2022/02/17 06:59:48;;;;;;;;;;;;;;;11.89;100.00;95594.34;1646480;86;25235;-88
2022/02/17 07:02:14;;;;;;;;;;;;;;;11.99;100.00;95566.05;1645055;85;20255;-86
2022/02/17 07:04:40;;;;;;;;;;;;;;;12.06;100.00;95578.70;1645011;85;25202;-83
2022/02/17 07:07:06;;;;;;;;;;;;;;;12.15;100.00;95568.44;1644523;85;22109;-84
2022/02/17 07:09:32;;;;;;;;;;;;;;;12.23;100.00;95559.62;1652600;85;26046;-88
2022/02/17 07:11:59;;;;;;;;;;;;;;;12.28;100.00;95576.91;1627696;87;20848;-85
2022/02/17 07:14:25;;;;;;;;;;;;;;;12.33;100.00;95598.66;1618738;87;20968;-88
2022/02/17 07:16:57;;;;;;;;;;;;;;;12.38;100.00;95576.62;1625247;86;25097;-88
2022/02/17 07:19:22;;;;;;;;;;;;;;;12.41;100.00;95570.98;1624125;87;22797;-85
2022/02/17 07:21:50;;;;;;;;;;;;;;;12.45;100.00;95598.45;1626876;86;26200;-86
2022/02/17 07:24:17;;;;;;;;;;;;;;;12.47;100.00;95590.72;1627961;87;23968;-85
2022/02/17 07:26:46;;;;;;;;;;;;;;;12.53;100.00;95589.16;1626288;87;20295;-84
2022/02/17 07:29:12;;;;;;;;;;;;;;;12.53;100.00;95587.34;1625108;87;24796;-89
2022/02/17 07:31:39;;;;;;;;;;;;;;;12.53;100.00;95597.84;1626520;87;22066;-88
2022/02/17 07:34:06;;;;;;;;;;;;;;;12.51;100.00;95588.52;1625785;87;26055;-88
2022/02/17 07:36:32;;;;;;;;;;;;;;;12.49;100.00;95588.70;1625535;87;24574;-88
2022/02/17 07:38:58;;;;;;;;;;;;;;;12.49;100.00;95590.54;1628277;87;20251;-88
2022/02/17 07:41:30;;;;;;;;;;;;;;;12.49;100.00;95584.77;1626913;87;24947;-88
2022/02/17 07:43:57;;;;;;;;;;;;;;;12.47;100.00;95601.21;1624725;87;22016;-84
2022/02/17 07:46:24;;;;;;;;;;;;;;;12.44;100.00;95558.30;1627036;87;26200;-87
2022/02/17 08:00:47;;;;;;;;;;;;;;;12.71;100.00;95657.72;1801239;78;20227;-85
2022/02/17 08:03:13;;;;;;;;;;;;;;;12.52;100.00;95689.83;1775075;80;21999;-85
2022/02/17 08:05:39;;;;;;;;;;;;;;;12.31;100.00;95703.73;1778273;80;26030;-85
2022/02/17 08:08:06;;;;;;;;;;;;;;;12.16;100.00;95817.79;1773844;80;24491;-85
2022/02/17 08:10:34;;;;;;;;;;;;;;;11.93;100.00;95878.67;1775226;80;20234;-85
2022/02/17 08:13:03;;;;;;;;;;;;;;;10.83;100.00;95959.70;1772912;80;24713;-86
2022/02/17 08:15:29;;;;;;;;;;;;;;;9.87;100.00;95978.42;1771123;80;22064;-86
2022/02/17 08:17:55;;;;;;;;;;;;;;;9.15;100.00;95977.34;1771211;80;25965;-86
2022/02/17 08:20:21;;;;;;;;;;;;;;;8.55;100.00;95982.28;1774543;80;24419;-86
2022/02/17 08:22:48;;;;;;;;;;;;;;;8.07;100.00;96005.72;1779039;80;20219;-85
2022/02/17 08:25:14;;;;;;;;;;;;;;;7.75;100.00;96009.33;1773258;80;24302;-85
2022/02/17 08:27:40;;;;;;;;;;;;;;;7.54;100.00;96012.23;1779705;80;22046;-85
2022/02/17 08:30:07;;;;;;;;;;;;;;;7.30;100.00;96030.20;1778335;80;26115;-86
2022/02/17 08:32:36;;;;;;;;;;;;;;;7.12;100.00;96021.87;1777464;80;25086;-86
2022/02/17 08:35:03;;;;;;;;;;;;;;;7.05;100.00;96034.28;1772274;80;20161;-86
2022/02/17 08:37:29;;;;;;;;;;;;;;;6.97;100.00;96037.63;1781347;80;24294;-86
2022/02/17 08:39:55;;;;;;;;;;;;;;;6.92;100.00;96048.94;1777383;80;21927;-86
2022/02/17 08:42:21;;;;;;;;;;;;;;;6.93;100.00;96053.63;1746064;80;26219;-86
2022/02/17 08:44:48;;;;;;;;;;;;;;;6.97;100.00;96060.20;1779160;80;24466;-85
2022/02/17 08:47:17;;;;;;;;;;;;;;;6.96;100.00;96055.48;1773139;80;20494;-89
2022/02/17 08:49:42;;;;;;;;;;;;;;;6.97;100.00;96051.10;1776515;80;24339;-90
2022/02/17 08:52:08;;;;;;;;;;;;;;;7.01;100.00;96074.55;1776546;80;21485;-90
2022/02/17 08:54:35;;;;;;;;;;;;;;;7.07;100.00;96086.98;1774671;80;26129;-89
2022/02/17 08:57:02;;;;;;;;;;;;;;;7.08;100.00;96064.73;1773555;80;24463;-89
2022/02/17 08:59:28;;;;;;;;;;;;;;;7.13;100.00;96070.33;1778168;80;20419;-88
2022/02/17 09:01:54;;;;;;;;;;;;;;;7.19;100.00;96078.04;1775117;80;24479;-88
2022/02/17 09:04:20;;;;;;;;;;;;;;;7.21;100.00;96068.77;1773175;80;22000;-89
2022/02/17 09:06:48;;;;;;;;;;;;;;;7.20;100.00;96091.86;1774544;80;26011;-88
2022/02/17 09:09:15;;;;;;;;;;;;;;;7.19;100.00;96081.94;1747829;80;24705;-85
2022/02/17 09:11:41;;;;;;;;;;;;;;;7.13;100.00;96094.22;1773661;80;20212;-86
2022/02/17 09:14:07;;;;;;;;;;;;;;;7.06;100.00;96087.45;1772040;80;24487;-86
2022/02/17 09:16:39;;;;;;;;;;;;;;;6.93;100.00;96049.25;1771818;80;22038;-88
2022/02/17 09:19:05;;;;;;;;;;;;;;;6.98;100.00;96074.34;1771890;80;26037;-87
2022/02/17 09:21:31;;;;;;;;;;;;;;;6.99;100.00;96067.36;1771552;80;24396;-88
2022/02/17 09:23:58;;;;;;;;;;;;;;;7.00;100.00;96041.70;1776724;80;20237;-88
2022/02/17 09:26:26;;;;;;;;;;;;;;;7.02;100.00;96043.69;1777469;80;24371;-88
2022/02/17 09:28:56;;;;;;;;;;;;;;;7.06;100.00;96066.66;1774662;80;22648;-90
2022/02/17 09:31:23;;;;;;;;;;;;;;;7.11;100.00;96055.34;1769129;80;26146;-89
2022/02/17 09:33:52;;;;;;;;;;;;;;;7.19;100.00;96070.72;1773404;80;24495;-89
2022/02/17 09:36:21;;;;;;;;;;;;;;;7.29;100.00;96084.48;1774827;80;20163;-88
2022/02/17 09:38:53;;;;;;;;;;;;;;;7.33;100.00;96074.13;1776709;80;24393;-87
2022/02/17 09:41:18;;;;;;;;;;;;;;;7.39;100.00;96079.57;1772202;80;22110;-87
2022/02/17 09:43:45;;;;;;;;;;;;;;;7.47;100.00;96078.86;1775168;79;26060;-87
2022/02/17 09:46:13;;;;;;;;;;;;;;;7.51;100.00;96073.21;1778643;80;24397;-87
2022/02/17 09:48:42;;;;;;;;;;;;;;;7.56;100.00;96076.67;1771211;80;20467;-87
2022/02/17 09:51:08;;;;;;;;;;;;;;;7.60;100.00;96064.99;1778114;80;25019;-87
2022/02/17 09:53:34;;;;;;;;;;;;;;;7.66;100.00;96064.41;1740549;79;21933;-87
2022/02/17 09:56:02;;;;;;;;;;;;;;;7.70;100.00;96068.83;1774292;79;26028;-86
2022/02/17 09:58:28;;;;;;;;;;;;;;;7.74;100.00;96072.80;1774751;80;24572;-87
2022/02/17 10:00:56;;;;;;;;;;;;;;;7.76;100.00;96064.34;1773059;79;20176;-86
2022/02/17 10:03:24;;;;;;;;;;;;;;;7.83;100.00;96084.92;1777628;80;24328;-87
2022/02/17 10:06:16;;;;;;;;;;;;;;;7.88;100.00;96070.49;1763609;80;22136;-86
2022/02/17 10:08:40;;;;;;;;;;;;;;;7.86;100.00;96063.30;1774922;80;26097;-89
2022/02/17 10:11:07;;;;;;;;;;;;;;;7.82;100.00;96052.86;1777634;79;24434;-88
2022/02/17 10:13:35;;;;;;;;;;;;;;;7.78;100.00;96061.11;1778434;80;20170;-90
2022/02/17 10:16:06;;;;;;;;;;;;;;;7.78;100.00;96053.30;1769852;80;24339;-89
2022/02/17 10:18:34;;;;;;;;;;;;;;;7.81;100.00;96044.70;1773828;79;22044;-89
2022/02/17 10:21:09;;;;;;;;;;;;;;;7.83;100.00;96049.77;1772073;80;27050;-90
2022/02/17 10:24:01;;;;;;;;;;;;;;;7.85;100.00;96056.48;1781329;80;24444;-90
2022/02/17 10:26:38;;;;;;;;;;;;;;;7.88;100.00;96052.75;1780161;80;20281;-91
2022/02/17 10:29:13;;;;;;;;;;;;;;;7.92;100.00;96043.66;1777246;80;24315;-90
2022/02/17 10:31:44;;;;;;;;;;;;;;;7.94;100.00;96034.75;1780072;80;22879;-89
2022/02/17 10:34:12;;;;;;;;;;;;;;;8.01;100.00;96044.09;1774844;79;26289;-88
2022/02/17 10:36:45;;;;;;;;;;;;;;;8.09;100.00;96041.53;1777776;80;25322;-91
2022/02/17 10:39:12;;;;;;;;;;;;;;;8.16;100.00;96049.09;1777724;80;20566;-86
2022/02/17 10:41:46;;;;;;;;;;;;;;;8.26;100.00;96047.70;1774121;80;24357;-86
2022/02/17 10:44:13;;;;;;;;;;;;;;;8.30;100.00;96052.48;1780475;80;21967;-86
2022/02/17 10:46:39;;;;;;;;;;;;;;;8.34;100.00;96058.23;1777957;80;26635;-86
2022/02/17 10:49:10;;;;;;;;;;;;;;;8.33;100.00;96045.68;1775048;80;25254;-87
2022/02/17 10:51:36;;;;;;;;;;;;;;;8.33;100.00;96051.38;1775857;80;20397;-88
2022/02/17 10:54:02;;;;;;;;;;;;;;;8.34;100.00;96032.98;1779873;79;25271;-87
2022/02/17 10:56:32;;;;;;;;;;;;;;;8.36;100.00;96064.91;1774902;80;22102;-87
2022/02/17 10:58:59;;;;;;;;;;;;;;;8.37;100.00;96074.85;1767502;80;25965;-87
2022/02/17 11:01:25;;;;;;;;;;;;;;;8.42;100.00;96067.39;1776374;79;24513;-88
2022/02/17 11:03:53;;;;;;;;;;;;;;;8.44;100.00;96069.38;1770963;80;20294;-88
2022/02/17 11:06:23;;;;;;;;;;;;;;;8.44;100.00;96051.13;1780381;79;25291;-88
2022/02/17 11:08:50;;;;;;;;;;;;;;;8.45;100.00;96054.08;1770463;79;22086;-88
2022/02/17 11:11:24;;;;;;;;;;;;;;;8.48;100.00;96049.84;1774683;80;26032;-89
2022/02/17 11:13:53;;;;;;;;;;;;;;;8.58;100.00;96041.44;1778332;80;24430;-88
2022/02/17 11:16:22;;;;;;;;;;;;;;;8.70;100.00;96050.65;1773450;80;20145;-88
2022/02/17 11:18:51;;;;;;;;;;;;;;;8.86;100.00;96051.22;1772527;79;24558;-88
2022/02/17 11:21:17;;;;;;;;;;;;;;;8.94;100.00;96049.16;1773405;80;21877;-88
2022/02/17 11:23:44;;;;;;;;;;;;;;;9.01;100.00;96054.06;1778060;79;26078;-88
2022/02/17 11:26:22;;;;;;;;;;;;;;;9.06;100.00;96062.23;1768742;80;24399;-88
2022/02/17 11:28:54;;;;;;;;;;;;;;;9.09;100.00;96085.42;1777050;80;20686;-89
2022/02/17 11:31:21;;;;;;;;;;;;;;;9.07;100.00;96086.05;1744582;80;24421;-83
2022/02/17 11:33:54;;;;;;;;;;;;;;;9.03;100.00;96073.81;1775220;80;22025;-83
2022/02/17 11:36:24;;;;;;;;;;;;;;;9.01;100.00;96091.41;1780068;79;26049;-83
2022/02/17 11:38:57;;;;;;;;;;;;;;;9.04;100.00;96081.16;1777404;79;24876;-84
2022/02/17 11:41:28;;;;;;;;;;;;;;;9.09;100.00;96084.13;1777445;79;20158;-88
2022/02/17 11:44:00;;;;;;;;;;;;;;;9.08;100.00;96062.91;1745851;80;24367;-88
2022/02/17 11:46:34;;;;;;;;;;;;;;;9.11;100.00;96058.70;1732288;81;22042;-88
2022/02/17 11:49:00;;;;;;;;;;;;;;;9.12;100.00;96064.23;1703328;83;26032;-88
2022/02/17 11:51:26;;;;;;;;;;;;;;;9.12;100.00;96072.05;1721391;83;24478;-88
2022/02/17 11:54:14;;;;;;;;;;;;;;;9.11;100.00;96083.48;1737442;81;20207;-88
2022/02/17 11:56:23;;;;;;;;;;;;;;;9.08;100.00;96074.16;1735937;81;24312;-87
2022/02/17 11:58:50;;;;;;;;;;;;;;;9.05;100.00;96086.23;1737234;81;22054;-87
2022/02/17 12:01:33;;;;;;;;;;;;;;;9.02;100.00;96060.44;1732851;82;26104;-89
2022/02/17 12:04:08;;;;;;;;;;;;;;;8.97;100.00;96047.05;1739567;82;24479;-87
2022/02/17 12:06:41;;;;;;;;;;;;;;;8.93;100.00;96037.08;1743455;81;20278;-88
2022/02/17 12:09:04;;;;;;;;;;;;;;;8.91;100.00;96059.40;1743371;82;24534;-88
2022/02/17 12:11:36;;;;;;;;;;;;;;;8.86;100.00;96053.02;1738582;81;21928;-88
2022/02/17 12:14:04;;;;;;;;;;;;;;;8.81;100.00;96052.17;1741863;81;26088;-87
2022/02/17 12:16:33;;;;;;;;;;;;;;;8.75;100.00;96057.52;1741284;81;24541;-87
2022/02/17 12:19:12;;;;;;;;;;;;;;;8.72;100.00;96074.79;1741684;81;20319;-87
2022/02/17 12:21:40;;;;;;;;;;;;;;;8.71;100.00;96095.31;1718654;82;24241;-87
2022/02/17 12:24:06;;;;;;;;;;;;;;;8.70;100.00;96094.15;1743617;81;22016;-87
2022/02/17 12:26:39;;;;;;;;;;;;;;;8.73;100.00;96092.53;1741894;81;25967;-87
2022/02/17 12:29:29;;;;;;;;;;;;;;;8.72;100.00;96091.73;1741641;81;24515;-87
2022/02/17 12:31:52;;;;;;;;;;;;;;;8.69;100.00;96100.33;1741167;81;20352;-86
2022/02/17 12:34:19;;;;;;;;;;;;;;;8.61;100.00;96103.72;1742454;82;24591;-86
2022/02/17 12:36:47;;;;;;;;;;;;;;;8.55;99.68;96104.80;1734204;82;22121;-86
2022/02/17 12:39:14;;;;;;;;;;;;;;;8.53;99.10;96103.64;1743013;81;21048;-86
2022/02/17 12:42:00;;;;;;;;;;;;;;;8.51;98.57;96104.78;1741250;82;24502;-86
2022/02/17 12:44:27;;;;;;;;;;;;;;;8.50;98.07;96122.69;1736400;82;20237;-86
2022/02/17 12:46:57;;;;;;;;;;;;;;;8.52;97.62;96117.64;1740660;82;24189;-86
2022/02/17 12:49:24;;;;;;;;;;;;;;;8.58;97.44;96123.56;1742322;81;22038;-86
2022/02/17 12:51:50;;;;;;;;;;;;;;;8.67;97.37;96122.64;1738045;81;26043;-86
2022/02/17 12:54:17;;;;;;;;;;;;;;;8.76;97.32;96122.23;1741734;82;24485;-86
2022/02/17 12:56:43;;;;;;;;;;;;;;;8.80;97.11;96111.81;1743115;82;20212;-86
2022/02/17 12:59:14;;;;;;;;;;;;;;;8.82;96.85;96137.27;1744569;82;24713;-85
2022/02/17 13:01:46;;;;;;;;;;;;;;;8.86;96.64;96107.78;1740717;81;21985;-85